createdAt,value
2023-05-08T00:01:01.131Z,7.90
2023-05-08T00:03:28.153Z,7.68
2023-05-08T00:05:58.115Z,6.93
2023-05-08T00:08:25.252Z,11.63
2023-05-08T00:10:52.106Z,7.57
2023-05-08T00:13:19.080Z,8.57
2023-05-08T00:15:46.371Z,8.48
2023-05-08T00:18:13.220Z,8.82
2023-05-08T00:20:40.020Z,9.55
2023-05-08T00:23:06.768Z,16.33
2023-05-08T00:25:33.671Z,10.60
2023-05-08T00:28:00.975Z,9.55
2023-05-08T00:30:28.011Z,10.30
2023-05-08T00:32:54.842Z,10.35
2023-05-08T00:35:21.909Z,8.55
2023-05-08T00:37:48.701Z,10.50
2023-05-08T00:40:15.792Z,8.82
2023-05-08T00:42:42.858Z,13.38
2023-05-08T00:45:10.081Z,9.90
2023-05-08T00:47:37.278Z,11.70
2023-05-08T00:50:05.436Z,14.20
2023-05-08T00:52:33.379Z,9.13
2023-05-08T00:55:04.894Z,10.40
2023-05-08T00:57:36.047Z,9.48
2023-05-08T01:00:05.595Z,10.90
2023-05-08T01:02:32.966Z,15.07
2023-05-08T01:05:00.365Z,10.95
2023-05-08T01:07:27.974Z,9.70
2023-05-08T01:09:54.836Z,8.60
2023-05-08T01:12:49.985Z,10.13
2023-05-08T01:15:37.093Z,10.82
2023-05-08T01:18:25.449Z,9.85
2023-05-08T01:21:13.029Z,10.52
2023-05-08T01:24:17.459Z,14.57
2023-05-08T01:27:16.799Z,10.23
2023-05-08T01:30:38.020Z,9.52
2023-05-08T01:33:39.732Z,13.15
2023-05-08T01:36:17.758Z,13.98
2023-05-08T01:39:13.910Z,10.02
2023-05-08T01:41:45.068Z,13.85
2023-05-08T01:44:18.177Z,13.73
2023-05-08T01:46:49.724Z,14.77
2023-05-08T01:49:45.025Z,10.02
2023-05-08T01:52:28.509Z,12.70
2023-05-08T01:55:01.548Z,9.93
2023-05-08T01:57:31.131Z,11.57
2023-05-08T02:00:01.113Z,11.57
2023-05-08T02:02:30.210Z,10.25
2023-05-08T02:04:58.362Z,14.52
2023-05-08T02:07:26.018Z,9.52
2023-05-08T02:09:54.723Z,15.23
2023-05-08T02:12:23.206Z,11.13
2023-05-08T02:14:53.368Z,14.95
2023-05-08T02:17:22.217Z,11.82
2023-05-08T02:19:51.280Z,13.05
2023-05-08T02:22:19.090Z,10.57
2023-05-08T02:24:46.953Z,12.50
2023-05-08T02:27:14.848Z,12.93
2023-05-08T02:29:42.805Z,12.35
2023-05-08T02:32:10.452Z,13.55
2023-05-08T02:34:41.036Z,11.35
2023-05-08T02:37:13.471Z,11.00
2023-05-08T02:39:42.698Z,13.38
2023-05-08T02:42:09.813Z,11.82
2023-05-08T02:44:36.685Z,11.65
2023-05-08T02:47:22.191Z,9.90
2023-05-08T02:49:51.302Z,9.65
2023-05-08T02:52:54.196Z,11.77
2023-05-08T02:55:30.961Z,13.23
2023-05-08T02:58:22.650Z,7.47
2023-05-08T03:01:11.548Z,12.13
2023-05-08T03:03:41.134Z,19.42
2023-05-08T03:06:14.893Z,9.18
2023-05-08T03:08:43.465Z,8.18
2023-05-08T03:11:16.361Z,18.50
2023-05-08T03:13:45.146Z,11.27
2023-05-08T03:16:18.077Z,10.65
2023-05-08T03:18:53.509Z,9.07
2023-05-08T03:21:22.855Z,10.68
2023-05-08T03:23:52.402Z,8.90
2023-05-08T03:26:19.788Z,6.35
2023-05-08T03:28:49.673Z,8.57
2023-05-08T03:31:23.462Z,9.57
2023-05-08T03:33:54.601Z,9.23
2023-05-08T03:36:22.580Z,16.00
2023-05-08T03:38:49.630Z,8.48
2023-05-08T03:41:16.641Z,8.20
2023-05-08T03:43:44.141Z,13.52
2023-05-08T03:46:12.452Z,12.20
2023-05-08T03:48:41.336Z,13.85
2023-05-08T03:51:08.212Z,13.85
2023-05-08T03:53:35.051Z,14.90
2023-05-08T03:56:02.871Z,12.02
2023-05-08T03:58:45.366Z,10.38
2023-05-08T04:01:18.004Z,9.10
2023-05-08T04:03:57.002Z,14.82
2023-05-08T04:07:05.168Z,10.52
2023-05-08T04:09:38.822Z,11.82
2023-05-08T04:12:15.155Z,11.40
2023-05-08T04:14:56.756Z,8.93
2023-05-08T04:17:34.934Z,9.73
2023-05-08T04:20:04.792Z,8.13
2023-05-08T04:22:33.871Z,8.23
2023-05-08T04:25:06.675Z,7.00
2023-05-08T04:27:34.585Z,10.00
2023-05-08T04:30:02.197Z,7.00
2023-05-08T04:32:30.325Z,8.05
2023-05-08T04:34:59.017Z,7.35
2023-05-08T04:37:27.347Z,5.07
2023-05-08T04:39:54.812Z,6.32
2023-05-08T04:42:21.797Z,6.10
2023-05-08T04:44:48.673Z,5.20
2023-05-08T04:47:15.612Z,5.70
2023-05-08T04:49:42.632Z,5.63
2023-05-08T04:52:09.566Z,7.70
2023-05-08T04:54:36.403Z,6.47
2023-05-08T04:57:03.358Z,5.60
2023-05-08T04:59:30.528Z,6.45
2023-05-08T05:01:57.584Z,5.00
2023-05-08T05:04:24.467Z,6.25
2023-05-08T05:06:51.209Z,8.68
2023-05-08T05:09:17.996Z,8.30
2023-05-08T05:11:44.903Z,5.07
2023-05-08T05:14:11.706Z,3.90
2023-05-08T05:16:38.581Z,6.60
2023-05-08T05:19:05.452Z,7.22
2023-05-08T05:21:32.272Z,5.10
2023-05-08T05:23:59.105Z,5.82
2023-05-08T05:26:25.939Z,3.58
2023-05-08T05:28:52.707Z,5.55
2023-05-08T05:31:19.640Z,3.60
2023-05-08T05:33:47.052Z,5.35
2023-05-08T05:36:13.905Z,9.30
2023-05-08T05:38:40.828Z,3.53
2023-05-08T05:41:07.722Z,6.78
2023-05-08T05:43:34.469Z,15.05
2023-05-08T05:46:06.185Z,3.78
2023-05-08T05:48:33.013Z,3.97
2023-05-08T05:50:59.969Z,8.85
2023-05-08T05:53:27.022Z,8.13
2023-05-08T05:55:54.063Z,4.03
2023-05-08T05:58:21.086Z,4.32
2023-05-08T06:00:48.413Z,5.10
2023-05-08T06:03:15.198Z,8.10
2023-05-08T06:05:42.054Z,3.78
2023-05-08T06:08:09.086Z,3.75
2023-05-08T06:10:36.473Z,3.55
2023-05-08T06:13:03.384Z,3.80
2023-05-08T06:15:30.183Z,5.90
2023-05-08T06:17:57.096Z,6.22
2023-05-08T06:20:25.628Z,4.97
2023-05-08T06:22:53.251Z,3.83
2023-05-08T06:25:20.267Z,6.80
2023-05-08T06:27:47.036Z,11.00
2023-05-08T06:30:13.981Z,3.67
2023-05-08T06:32:40.877Z,4.30
2023-05-08T06:35:08.619Z,39.15
2023-05-08T06:37:35.501Z,11.85
2023-05-08T06:40:11.629Z,9.20
2023-05-08T06:42:40.280Z,2.28
2023-05-08T06:45:08.770Z,4.82
2023-05-08T06:47:35.557Z,1.45
2023-05-08T06:50:02.429Z,2.88
2023-05-08T06:52:29.433Z,2.10
2023-05-08T06:54:56.442Z,2.15
2023-05-08T06:57:24.313Z,1.42
2023-05-08T06:59:51.078Z,1.38
2023-05-08T07:02:17.872Z,1.70
2023-05-08T07:04:44.998Z,1.58
2023-05-08T07:07:12.915Z,2.17
2023-05-08T07:09:39.964Z,1.80
2023-05-08T07:12:07.063Z,1.63
2023-05-08T07:14:33.869Z,4.28
2023-05-08T07:17:07.013Z,2.30
2023-05-08T07:19:37.106Z,3.30
2023-05-08T07:22:04.972Z,2.63
2023-05-08T07:24:32.607Z,7.77
2023-05-08T07:26:59.807Z,4.28
2023-05-08T07:29:27.100Z,4.43
2023-05-08T07:31:54.282Z,1.95
2023-05-08T07:34:21.293Z,2.10
2023-05-08T07:36:48.109Z,2.50
2023-05-08T07:39:14.980Z,3.22
2023-05-08T07:41:41.976Z,2.72
2023-05-08T07:44:09.129Z,1.90
2023-05-08T07:46:36.059Z,2.33
2023-05-08T07:49:03.173Z,5.13
2023-05-08T07:51:31.839Z,1.55
2023-05-08T07:53:58.805Z,1.63
2023-05-08T07:56:25.710Z,1.30
2023-05-08T07:58:52.454Z,1.60
2023-05-08T08:01:19.443Z,1.70
2023-05-08T08:03:47.205Z,1.53
2023-05-08T08:06:14.488Z,11.63
2023-05-08T08:08:41.559Z,4.10
2023-05-08T08:11:08.656Z,1.40
2023-05-08T08:13:35.483Z,2.83
2023-05-08T08:16:04.227Z,2.90
2023-05-08T08:18:35.061Z,8.30
2023-05-08T08:21:04.766Z,15.03
2023-05-08T08:23:31.609Z,3.77
2023-05-08T08:25:58.427Z,1.47
2023-05-08T08:28:25.417Z,5.50
2023-05-08T08:30:52.383Z,1.97
2023-05-08T08:33:19.352Z,1.93
2023-05-08T08:35:46.471Z,2.10
2023-05-08T08:38:13.451Z,3.57
2023-05-08T08:40:44.045Z,1.30
2023-05-08T08:43:10.858Z,1.70
2023-05-08T08:45:38.316Z,1.53
2023-05-08T08:48:09.960Z,1.80
2023-05-08T08:50:40.564Z,4.83
2023-05-08T08:53:10.286Z,4.80
2023-05-08T08:55:40.795Z,2.30
2023-05-08T08:58:14.223Z,6.23
2023-05-08T09:00:41.887Z,8.83
2023-05-08T09:03:09.276Z,1.50
2023-05-08T09:05:36.999Z,1.60
2023-05-08T09:08:04.191Z,1.63
2023-05-08T09:10:31.053Z,1.70
2023-05-08T09:12:57.895Z,1.63
2023-05-08T09:15:24.675Z,1.90
2023-05-08T09:17:51.594Z,1.63
2023-05-08T09:20:19.507Z,2.10
2023-05-08T09:22:47.052Z,1.47
2023-05-08T09:25:14.047Z,1.63
2023-05-08T09:27:40.924Z,2.30
2023-05-08T09:30:09.225Z,1.63
2023-05-08T09:32:38.550Z,1.40
2023-05-08T09:35:07.227Z,2.20
2023-05-08T09:37:34.159Z,2.00
2023-05-08T09:40:21.436Z,1.53
2023-05-08T09:42:50.311Z,2.63
2023-05-08T09:45:29.291Z,1.70
2023-05-08T09:47:56.420Z,2.60
2023-05-08T09:50:23.421Z,1.70
2023-05-08T09:52:50.889Z,1.33
2023-05-08T09:55:18.392Z,1.63
2023-05-08T09:57:57.189Z,3.57
2023-05-08T10:00:25.843Z,1.77
2023-05-08T10:03:03.697Z,5.60
2023-05-08T10:05:34.210Z,1.77
2023-05-08T10:08:24.061Z,1.93
2023-05-08T10:10:51.257Z,3.00
2023-05-08T10:13:18.189Z,1.50
2023-05-08T10:15:45.711Z,2.60
2023-05-08T10:18:14.023Z,1.50
2023-05-08T10:20:44.510Z,3.43
2023-05-08T10:23:17.141Z,1.60
2023-05-08T10:25:46.655Z,3.13
2023-05-08T10:28:16.297Z,2.80
2023-05-08T10:30:47.574Z,1.57
2023-05-08T10:33:18.033Z,2.47
2023-05-08T10:35:46.066Z,4.93
2023-05-08T10:38:14.315Z,5.03
2023-05-08T10:40:42.379Z,2.37
2023-05-08T10:43:11.413Z,10.90
2023-05-08T10:45:38.961Z,1.60
2023-05-08T10:48:44.931Z,2.10
2023-05-08T10:51:27.683Z,1.90
2023-05-08T10:54:02.173Z,1.93
2023-05-08T10:56:29.572Z,5.70
2023-05-08T10:58:57.973Z,2.10
2023-05-08T11:01:26.255Z,1.60
2023-05-08T11:03:55.335Z,3.43
2023-05-08T11:06:45.918Z,2.83
2023-05-08T11:09:41.767Z,5.13
2023-05-08T11:12:29.619Z,1.80
2023-05-08T11:15:09.769Z,1.70
2023-05-08T11:17:36.734Z,3.13
2023-05-08T11:20:05.756Z,2.20
2023-05-08T11:22:33.947Z,11.37
2023-05-08T11:25:05.417Z,3.03
2023-05-08T11:27:57.426Z,2.73
2023-05-08T11:30:33.155Z,5.23
2023-05-08T11:33:06.739Z,2.27
2023-05-08T11:35:57.347Z,1.73
2023-05-08T11:38:26.840Z,2.87
2023-05-08T11:40:58.374Z,1.70
2023-05-08T11:43:34.122Z,3.10
2023-05-08T11:46:05.838Z,4.03
2023-05-08T11:48:33.250Z,2.30
2023-05-08T11:51:01.035Z,1.80
2023-05-08T11:53:28.676Z,1.90
2023-05-08T11:55:55.775Z,1.60
2023-05-08T11:58:22.740Z,3.30
2023-05-08T12:00:50.135Z,2.13
2023-05-08T12:03:19.316Z,2.03
2023-05-08T12:05:47.408Z,1.90
2023-05-08T12:08:15.686Z,1.73
2023-05-08T12:11:00.627Z,1.57
2023-05-08T12:13:29.509Z,2.60
2023-05-08T12:15:58.360Z,1.50
2023-05-08T12:18:27.140Z,1.80
2023-05-08T12:20:59.588Z,1.40
2023-05-08T12:23:28.747Z,1.87
2023-05-08T12:26:00.908Z,1.80
2023-05-08T12:28:28.134Z,1.60
2023-05-08T12:30:54.996Z,1.80
2023-05-08T12:33:22.399Z,1.60
2023-05-08T12:35:49.700Z,1.87
2023-05-08T12:38:16.623Z,3.27
2023-05-08T12:40:45.661Z,2.00
2023-05-08T12:43:12.526Z,2.33
2023-05-08T12:45:42.076Z,5.43
2023-05-08T12:48:15.473Z,2.30
2023-05-08T12:50:45.343Z,2.10
2023-05-08T12:53:14.128Z,1.93
2023-05-08T12:55:52.760Z,8.13
2023-05-08T12:58:20.102Z,11.40
2023-05-08T13:00:49.626Z,1.80
2023-05-08T13:03:37.229Z,4.10
2023-05-08T13:06:04.280Z,1.77
2023-05-08T13:08:36.734Z,2.30
2023-05-08T13:11:06.182Z,3.93
2023-05-08T13:13:35.467Z,2.63
2023-05-08T13:16:06.988Z,2.60
2023-05-08T13:18:36.831Z,3.33
2023-05-08T13:21:03.979Z,1.83
2023-05-08T13:23:30.866Z,2.70
2023-05-08T13:25:57.644Z,4.10
2023-05-08T13:28:24.450Z,1.57
2023-05-08T13:30:51.258Z,1.97
2023-05-08T13:33:18.092Z,1.13
2023-05-08T13:35:44.919Z,3.53
2023-05-08T13:38:11.783Z,1.83
2023-05-08T13:40:38.669Z,1.40
2023-05-08T13:43:05.699Z,1.93
2023-05-08T13:45:33.112Z,3.00
2023-05-08T13:48:00.322Z,1.50
2023-05-08T13:50:27.278Z,2.80
2023-05-08T13:52:55.222Z,1.67
2023-05-08T13:55:23.322Z,3.00
2023-05-08T13:57:50.956Z,1.53
2023-05-08T14:00:18.359Z,1.63
2023-05-08T14:02:45.537Z,4.60
2023-05-08T14:05:12.802Z,3.70
2023-05-08T14:07:39.835Z,2.60
2023-05-08T14:10:06.878Z,2.20
2023-05-08T14:12:42.978Z,2.13
2023-05-08T14:15:11.851Z,1.67
2023-05-08T14:17:38.967Z,1.83
2023-05-08T14:20:06.687Z,1.63
2023-05-08T14:22:33.728Z,2.00
2023-05-08T14:25:00.490Z,14.57
2023-05-08T14:27:27.222Z,4.03
2023-05-08T14:29:54.214Z,5.70
2023-05-08T14:32:21.156Z,8.33
2023-05-08T14:34:48.169Z,2.90
2023-05-08T14:37:15.068Z,2.00
2023-05-08T14:39:41.865Z,1.53
2023-05-08T14:44:38.425Z,4.97
2023-05-08T14:47:05.428Z,2.00
2023-05-08T14:49:37.989Z,3.07
2023-05-08T14:52:06.788Z,1.70
2023-05-08T14:54:34.006Z,6.07
2023-05-08T14:57:01.169Z,3.43
2023-05-08T14:59:28.026Z,3.47
2023-05-08T15:01:54.963Z,3.37
2023-05-08T15:04:21.876Z,1.70
2023-05-08T15:06:48.696Z,1.60
2023-05-08T15:09:16.714Z,2.17
2023-05-08T15:11:43.985Z,1.40
2023-05-08T15:14:10.995Z,1.80
2023-05-08T15:16:37.929Z,1.87
2023-05-08T15:19:04.912Z,2.37
2023-05-08T15:21:31.709Z,5.00
2023-05-08T15:23:58.576Z,4.10
2023-05-08T15:26:25.704Z,4.37
2023-05-08T15:28:52.517Z,3.53
2023-05-08T15:31:19.313Z,1.80
2023-05-08T15:33:47.760Z,3.23
2023-05-08T15:36:14.739Z,4.63
2023-05-08T15:38:42.043Z,3.43
2023-05-08T15:41:14.530Z,8.23
2023-05-08T15:43:42.304Z,5.00
2023-05-08T15:46:09.174Z,2.33
2023-05-08T15:48:36.088Z,1.60
2023-05-08T15:51:02.885Z,1.47
2023-05-08T15:53:29.654Z,7.37
2023-05-08T15:55:57.222Z,6.87
2023-05-08T15:58:24.352Z,1.43
2023-05-08T16:00:51.366Z,2.60
2023-05-08T16:03:18.270Z,4.27
2023-05-08T16:05:45.602Z,2.30
2023-05-08T16:08:13.133Z,9.57
2023-05-08T16:10:43.636Z,2.73
2023-05-08T16:13:10.459Z,6.50
2023-05-08T16:15:37.262Z,1.80
2023-05-08T16:18:04.280Z,1.40
2023-05-08T16:20:33.368Z,2.27
2023-05-08T16:23:01.071Z,3.20
2023-05-08T16:25:27.855Z,2.53
2023-05-08T16:27:54.691Z,1.43
2023-05-08T16:30:21.442Z,1.67
2023-05-08T16:32:48.628Z,4.43
2023-05-08T16:35:15.901Z,1.70
2023-05-08T16:37:43.271Z,1.60
2023-05-08T16:40:10.679Z,1.57
2023-05-08T16:42:37.656Z,2.60
2023-05-08T16:45:05.382Z,1.67
2023-05-08T16:47:32.909Z,4.70
2023-05-08T16:49:59.996Z,2.20
2023-05-08T16:52:27.070Z,1.87
2023-05-08T16:54:53.821Z,3.10
2023-05-08T16:57:20.597Z,1.90
2023-05-08T16:59:47.383Z,2.30
2023-05-08T17:02:18.725Z,3.77
2023-05-08T17:04:49.132Z,4.10
2023-05-08T17:07:16.516Z,1.40
2023-05-08T17:09:43.540Z,1.67
2023-05-08T17:12:10.540Z,2.43
2023-05-08T17:14:39.925Z,2.13
2023-05-08T17:17:07.657Z,1.90
2023-05-08T17:19:34.587Z,3.27
2023-05-08T17:22:01.690Z,1.90
2023-05-08T17:24:30.840Z,11.73
2023-05-08T17:26:57.715Z,2.20
2023-05-08T17:29:24.640Z,5.47
2023-05-08T17:31:51.472Z,4.40
2023-05-08T17:34:18.277Z,4.10
2023-05-08T17:36:45.100Z,1.57
2023-05-08T17:39:12.428Z,1.73
2023-05-08T17:41:39.157Z,4.50
2023-05-08T17:44:06.542Z,1.67
2023-05-08T17:46:33.384Z,1.63
2023-05-08T17:49:00.171Z,1.57
2023-05-08T17:51:26.962Z,2.50
2023-05-08T17:53:53.894Z,4.33
2023-05-08T17:56:23.263Z,1.80
2023-05-08T17:58:52.376Z,1.80
2023-05-08T18:01:20.239Z,7.17
2023-05-08T18:03:50.851Z,2.03
2023-05-08T18:06:18.297Z,2.67
2023-05-08T18:08:46.002Z,1.93
2023-05-08T18:11:19.428Z,6.63
2023-05-08T18:13:46.782Z,3.43
2023-05-08T18:16:15.160Z,2.10
2023-05-08T18:18:42.159Z,5.00
2023-05-08T18:21:09.113Z,4.70
2023-05-08T18:23:36.135Z,2.03
2023-05-08T18:26:03.683Z,1.67
2023-05-08T18:28:30.525Z,2.33
2023-05-08T18:30:57.425Z,2.43
2023-05-08T18:33:24.295Z,4.10
2023-05-08T18:35:51.558Z,3.00
2023-05-08T18:38:18.520Z,2.07
2023-05-08T18:40:45.984Z,11.30
2023-05-08T18:43:12.814Z,2.23
2023-05-08T18:45:40.543Z,3.60
2023-05-08T18:48:08.995Z,2.53
2023-05-08T18:50:36.246Z,2.70
2023-05-08T18:53:03.209Z,4.40
2023-05-08T18:55:30.146Z,3.53
2023-05-08T18:57:56.947Z,4.83
2023-05-08T19:00:23.907Z,4.23
2023-05-08T19:02:50.698Z,4.17
2023-05-08T19:05:17.907Z,6.33
2023-05-08T19:07:45.471Z,5.43
2023-05-08T19:10:12.752Z,3.13
2023-05-08T19:12:39.893Z,3.67
2023-05-08T19:15:09.296Z,3.30
2023-05-08T19:17:36.919Z,2.60
2023-05-08T19:20:04.381Z,2.87
2023-05-08T19:22:32.451Z,9.77
2023-05-08T19:25:00.699Z,5.83
2023-05-08T19:27:29.085Z,6.37
2023-05-08T19:29:56.170Z,3.47
2023-05-08T19:32:23.197Z,2.90
2023-05-08T19:34:49.959Z,2.93
2023-05-08T19:37:16.786Z,3.23
2023-05-08T19:39:43.660Z,2.80
2023-05-08T19:42:13.652Z,4.70
2023-05-08T19:44:40.515Z,4.70
2023-05-08T19:47:07.443Z,3.83
2023-05-08T19:49:34.190Z,7.07
2023-05-08T19:52:00.952Z,2.90
2023-05-08T19:54:29.825Z,3.17
2023-05-08T19:56:57.014Z,3.30
2023-05-08T19:59:23.838Z,3.60
2023-05-08T20:01:53.007Z,7.75
2023-05-08T20:04:19.945Z,2.80
2023-05-08T20:06:46.757Z,4.38
2023-05-08T20:09:13.521Z,4.55
2023-05-08T20:11:40.383Z,11.32
2023-05-08T20:14:07.141Z,3.63
2023-05-08T20:16:34.009Z,3.40
2023-05-08T20:19:01.742Z,7.00
2023-05-08T20:21:33.877Z,6.20
2023-05-08T20:24:01.183Z,3.55
2023-05-08T20:26:29.436Z,5.95
2023-05-08T20:28:56.954Z,2.50
2023-05-08T20:31:25.761Z,6.65
2023-05-08T20:33:52.765Z,7.68
2023-05-08T20:36:19.951Z,3.08
2023-05-08T20:38:46.849Z,5.03
2023-05-08T20:41:13.643Z,5.07
2023-05-08T20:43:40.397Z,16.23
2023-05-08T20:46:07.257Z,4.57
2023-05-08T20:48:34.092Z,3.28
2023-05-08T20:51:00.999Z,5.60
2023-05-08T20:53:27.790Z,4.25
2023-05-08T20:56:04.934Z,5.78
2023-05-08T20:58:32.119Z,4.45
2023-05-08T21:00:58.934Z,5.07
2023-05-08T21:03:26.108Z,5.47
2023-05-08T21:05:54.034Z,9.35
2023-05-08T21:08:24.766Z,5.13
2023-05-08T21:10:52.795Z,4.32
2023-05-08T21:13:19.736Z,3.13
2023-05-08T21:15:50.333Z,2.83
2023-05-08T21:18:17.726Z,7.60
2023-05-08T21:20:50.323Z,3.65
2023-05-08T21:23:18.176Z,3.85
2023-05-08T21:25:48.980Z,5.00
2023-05-08T21:28:16.502Z,3.50
2023-05-08T21:30:44.360Z,6.15
2023-05-08T21:33:13.708Z,3.45
2023-05-08T21:35:41.702Z,6.07
2023-05-08T21:38:09.376Z,3.70
2023-05-08T21:40:36.197Z,4.30
2023-05-08T21:43:03.090Z,4.30
2023-05-08T21:45:31.396Z,3.15
2023-05-08T21:47:59.201Z,8.23
2023-05-08T21:50:28.535Z,3.45
2023-05-08T21:52:56.723Z,5.47
2023-05-08T21:55:24.139Z,8.50
2023-05-08T21:57:51.334Z,6.40
2023-05-08T22:00:18.543Z,5.25
2023-05-08T22:02:45.668Z,3.45
2023-05-08T22:05:12.882Z,8.15
2023-05-08T22:07:41.125Z,6.30
2023-05-08T22:10:09.407Z,3.15
2023-05-08T22:12:36.288Z,5.70
2023-05-08T22:15:09.346Z,6.07
2023-05-08T22:17:39.610Z,3.38
2023-05-08T22:20:08.194Z,4.40
2023-05-08T22:22:35.042Z,5.50
2023-05-08T22:25:01.900Z,6.03
2023-05-08T22:27:28.719Z,4.72
2023-05-08T22:29:55.448Z,5.68
2023-05-08T22:32:22.661Z,12.05
2023-05-08T22:34:50.029Z,8.43
2023-05-08T22:37:17.668Z,3.22
2023-05-08T22:39:44.385Z,4.10
2023-05-08T22:42:11.658Z,6.38
2023-05-08T22:44:38.568Z,11.30
2023-05-08T22:47:06.067Z,3.05
2023-05-08T22:49:33.299Z,14.40
2023-05-08T22:52:00.086Z,6.00
2023-05-08T22:54:27.141Z,4.95
2023-05-08T22:56:53.955Z,4.53
2023-05-08T22:59:20.772Z,3.72
2023-05-08T23:01:47.557Z,4.35
2023-05-08T23:04:14.441Z,6.15
2023-05-08T23:06:41.203Z,10.23
2023-05-08T23:09:08.417Z,6.70
2023-05-08T23:11:35.303Z,16.80
2023-05-08T23:14:02.113Z,8.45
2023-05-08T23:16:28.860Z,12.68
2023-05-08T23:18:55.646Z,9.52
2023-05-08T23:21:22.417Z,14.68
2023-05-08T23:23:49.212Z,8.20
2023-05-08T23:26:16.020Z,11.50
2023-05-08T23:28:42.837Z,12.18
2023-05-08T23:31:10.048Z,9.73
2023-05-08T23:33:36.859Z,8.43
2023-05-08T23:36:03.843Z,9.10
2023-05-08T23:38:31.083Z,10.38
2023-05-08T23:40:57.882Z,11.52
2023-05-08T23:43:24.999Z,13.10
2023-05-08T23:45:51.858Z,14.20
2023-05-08T23:48:18.767Z,8.90
2023-05-08T23:50:46.473Z,10.57
2023-05-08T23:53:13.474Z,12.50
2023-05-08T23:55:40.531Z,18.70
2023-05-08T23:58:07.500Z,12.00
